createdAt,value
2019-04-27T00:01:45.273Z,3.52
2019-04-27T00:06:51.861Z,3.19
2019-04-27T00:11:59.491Z,3.52
2019-04-27T00:17:07.083Z,3.35
2019-04-27T00:22:14.773Z,3.41
2019-04-27T00:27:23.460Z,3.45
2019-04-27T00:32:29.649Z,3.34
2019-04-27T00:37:37.236Z,3.55
2019-04-27T00:42:44.844Z,3.23
2019-04-27T00:47:59.065Z,3.71
2019-04-27T00:53:00.061Z,3.52
2019-04-27T00:58:07.648Z,3.60
2019-04-27T01:03:15.254Z,3.68
2019-04-27T01:08:23.021Z,3.83
2019-04-27T01:13:30.453Z,4.04
2019-04-27T01:18:38.751Z,4.07
2019-04-27T01:23:45.455Z,4.17
2019-04-27T01:28:53.280Z,4.30
2019-04-27T01:34:00.881Z,4.52
2019-04-27T01:39:08.529Z,4.73
2019-04-27T01:44:16.112Z,4.94
2019-04-27T01:49:23.721Z,4.81
2019-04-27T01:54:31.368Z,4.90
2019-04-27T01:59:38.974Z,5.64
2019-04-27T02:04:46.584Z,5.48
2019-04-27T02:09:54.198Z,4.92
2019-04-27T02:15:01.922Z,5.03
2019-04-27T02:20:09.781Z,5.39
2019-04-27T02:25:18.974Z,4.84
2019-04-27T02:30:24.787Z,5.15
2019-04-27T02:35:32.379Z,5.10
2019-04-27T02:40:42.622Z,5.39
2019-04-27T02:45:47.148Z,5.76
2019-04-27T02:50:54.778Z,5.82
2019-04-27T02:56:02.377Z,5.83
2019-04-27T03:01:10.088Z,6.02
2019-04-27T03:06:19.769Z,6.45
2019-04-27T03:11:24.966Z,6.70
2019-04-27T03:16:32.581Z,6.67
2019-04-27T03:21:40.241Z,8.19
2019-04-27T03:26:50.061Z,7.54
2019-04-27T03:31:55.051Z,8.07
2019-04-27T03:37:02.668Z,8.17
2019-04-27T03:42:10.576Z,7.93
2019-04-27T03:47:19.725Z,8.98
2019-04-27T03:52:25.453Z,7.70
2019-04-27T03:57:33.071Z,9.05
2019-04-27T04:02:40.736Z,8.74
2019-04-27T04:07:50.361Z,7.62
2019-04-27T04:12:56.423Z,7.49
2019-04-27T04:18:03.449Z,8.43
2019-04-27T04:23:11.034Z,7.16
2019-04-27T04:28:20.029Z,7.79
2019-04-27T04:33:25.994Z,6.85
2019-04-27T04:38:36.413Z,6.77
2019-04-27T04:43:34.009Z,6.85
2019-04-27T04:48:41.624Z,7.63
2019-04-27T04:53:51.740Z,6.94
2019-04-27T04:58:56.361Z,6.18
2019-04-27T05:04:04.031Z,6.86
2019-04-27T05:09:11.592Z,6.17
2019-04-27T05:14:19.983Z,6.09
2019-04-27T05:19:26.336Z,5.78
2019-04-27T05:24:33.972Z,5.66
2019-04-27T05:29:41.565Z,6.08
2019-04-27T05:34:49.566Z,6.46
2019-04-27T05:39:56.340Z,6.93
2019-04-27T05:45:03.929Z,7.04
2019-04-27T05:50:13.399Z,7.57
2019-04-27T05:55:19.250Z,8.12
2019-04-27T06:00:26.561Z,9.50
2019-04-27T06:05:34.148Z,9.69
2019-04-27T06:10:43.435Z,8.33
2019-04-27T06:15:51.041Z,10.62
2019-04-27T06:21:13.711Z,9.59
2019-04-27T06:26:01.765Z,9.60
2019-04-27T06:31:08.772Z,10.75
2019-04-27T06:36:14.770Z,10.51
2019-04-27T06:41:22.362Z,11.19
2019-04-27T06:46:30.004Z,13.22
2019-04-27T06:51:37.742Z,11.74
2019-04-27T06:56:45.408Z,11.44
2019-04-27T07:01:53.123Z,15.92
2019-04-27T07:07:01.733Z,14.73
2019-04-27T07:12:19.032Z,15.60
2019-04-27T07:17:14.713Z,16.56
2019-04-27T07:22:22.413Z,5.95
2019-04-27T07:27:45.211Z,5.98
2019-04-27T07:32:32.176Z,6.73
2019-04-27T07:37:39.832Z,6.98
